Portada
METAR-TAF:

METAR-TAF

Aeroports :

Vientiane, Laos

latitud: 17-57N, longitud: 102-34E, altitud: 171 m

Observació

L'informe es va fer fa 32 minuts, a les 13:00 UTC
Vent 2 kt del Oest/Sud-Oest
Temperatura 30°C
Humitat 70%
Pressió 1005 hPa
Visibilitat: 5000 m
Cel ennuvolat a una alçada de 5000 ft
boirina

METAR: VLVT 141300Z 24002KT 5000 BR BKN050 30/24 Q1005 NOSIG

Hora: 20:32 (13:32 UTC)

Pronòstic

L'informe es va fer fa 8 hores i 32 minuts, a les 05:00 UTC
Pronòstic vàlid del 14 a les 06 UTC al 15 a les 06 UTC
Vent 4 kt del Oest/Sud-Oest
Visibilitat: 8000 m
Núvols disperses a una alçada de 2000 ft
Núvols disperses a una alçada de 20000 ft

TAF: VLVT 140500Z 1406/1506 24004KT 8000 SCT020 SCT200

Observacions i pronòstics meteorològics de més de 4000 aeroports (METAR i TAF).

Les estacions disponibles són els punts grocs i vermells al mapa.

Posi el ratolí al punt desitjat per veure el nom de l'estació.

Feu clic per veure les observacions i els pronòstics meteorològics.

Per canviar el mapa: feu clic els botons verds amb una creu de color negre per apropar; al botó verd amb un guió per allunyar la imatge; o en les fletxes verdes per a mapes adjacents.


METAR-TAF: